sensor_id;sensor_type;location;lat;lon;timestamp;P1;durP1;ratioP1;P2;durP2;ratioP2
54177;SDS011;40085;53.004;6.770;2023-06-19T00:02:14;5.53;;;3.83;;
54177;SDS011;40085;53.004;6.770;2023-06-19T00:04:39;4.82;;;3.20;;
54177;SDS011;40085;53.004;6.770;2023-06-19T00:07:05;3.80;;;3.25;;
54177;SDS011;40085;53.004;6.770;2023-06-19T00:09:31;4.22;;;3.45;;
54177;SDS011;40085;53.004;6.770;2023-06-19T00:11:57;9.38;;;3.20;;
54177;SDS011;40085;53.004;6.770;2023-06-19T00:14:24;6.35;;;3.78;;
54177;SDS011;40085;53.004;6.770;2023-06-19T00:16:51;5.00;;;3.33;;
54177;SDS011;40085;53.004;6.770;2023-06-19T00:19:16;5.97;;;3.42;;
54177;SDS011;40085;53.004;6.770;2023-06-19T00:21:43;5.68;;;3.20;;
54177;SDS011;40085;53.004;6.770;2023-06-19T00:24:09;5.47;;;3.20;;
54177;SDS011;40085;53.004;6.770;2023-06-19T00:26:35;6.55;;;3.50;;
54177;SDS011;40085;53.004;6.770;2023-06-19T00:29:01;6.65;;;3.50;;
54177;SDS011;40085;53.004;6.770;2023-06-19T00:31:27;6.97;;;3.63;;
54177;SDS011;40085;53.004;6.770;2023-06-19T00:33:53;4.50;;;3.10;;
54177;SDS011;40085;53.004;6.770;2023-06-19T00:36:19;4.50;;;3.45;;
54177;SDS011;40085;53.004;6.770;2023-06-19T00:38:46;4.85;;;3.10;;
54177;SDS011;40085;53.004;6.770;2023-06-19T00:41:12;4.68;;;2.95;;
54177;SDS011;40085;53.004;6.770;2023-06-19T00:43:39;4.57;;;3.78;;
54177;SDS011;40085;53.004;6.770;2023-06-19T00:46:05;5.85;;;3.78;;
54177;SDS011;40085;53.004;6.770;2023-06-19T00:48:31;5.22;;;3.17;;
54177;SDS011;40085;53.004;6.770;2023-06-19T00:50:58;9.48;;;3.65;;
54177;SDS011;40085;53.004;6.770;2023-06-19T00:53:25;6.88;;;3.58;;
54177;SDS011;40085;53.004;6.770;2023-06-19T00:55:51;5.88;;;3.80;;
54177;SDS011;40085;53.004;6.770;2023-06-19T00:58:19;4.68;;;3.15;;
54177;SDS011;40085;53.004;6.770;2023-06-19T01:00:45;6.30;;;3.90;;
54177;SDS011;40085;53.004;6.770;2023-06-19T01:03:11;4.88;;;3.15;;
54177;SDS011;40085;53.004;6.770;2023-06-19T01:05:37;4.38;;;2.97;;
54177;SDS011;40085;53.004;6.770;2023-06-19T01:08:04;3.53;;;3.10;;
54177;SDS011;40085;53.004;6.770;2023-06-19T01:10:55;6.03;;;3.63;;
54177;SDS011;40085;53.004;6.770;2023-06-19T01:13:28;4.88;;;3.20;;
54177;SDS011;40085;53.004;6.770;2023-06-19T01:16:02;6.43;;;3.92;;
54177;SDS011;40085;53.004;6.770;2023-06-19T01:18:29;12.52;;;3.65;;
54177;SDS011;40085;53.004;6.770;2023-06-19T01:20:56;4.82;;;3.35;;
54177;SDS011;40085;53.004;6.770;2023-06-19T01:23:33;5.28;;;3.40;;
54177;SDS011;40085;53.004;6.770;2023-06-19T01:25:59;4.60;;;3.47;;
54177;SDS011;40085;53.004;6.770;2023-06-19T01:28:24;5.45;;;3.10;;
54177;SDS011;40085;53.004;6.770;2023-06-19T01:30:51;4.32;;;2.95;;
54177;SDS011;40085;53.004;6.770;2023-06-19T01:33:23;4.28;;;3.03;;
54177;SDS011;40085;53.004;6.770;2023-06-19T01:35:52;4.47;;;3.15;;
54177;SDS011;40085;53.004;6.770;2023-06-19T01:38:20;5.25;;;3.33;;
54177;SDS011;40085;53.004;6.770;2023-06-19T01:40:50;6.03;;;2.83;;
54177;SDS011;40085;53.004;6.770;2023-06-19T01:43:18;5.68;;;3.78;;
54177;SDS011;40085;53.004;6.770;2023-06-19T01:45:44;4.65;;;3.42;;
54177;SDS011;40085;53.004;6.770;2023-06-19T01:48:10;5.07;;;3.35;;
54177;SDS011;40085;53.004;6.770;2023-06-19T01:50:36;5.32;;;3.00;;
54177;SDS011;40085;53.004;6.770;2023-06-19T01:53:01;4.20;;;3.10;;
54177;SDS011;40085;53.004;6.770;2023-06-19T01:55:27;4.70;;;3.40;;
54177;SDS011;40085;53.004;6.770;2023-06-19T01:57:53;5.43;;;3.33;;
54177;SDS011;40085;53.004;6.770;2023-06-19T02:00:18;3.47;;;2.70;;
54177;SDS011;40085;53.004;6.770;2023-06-19T02:02:44;5.30;;;3.70;;
54177;SDS011;40085;53.004;6.770;2023-06-19T02:05:10;4.45;;;3.60;;
54177;SDS011;40085;53.004;6.770;2023-06-19T02:07:36;5.35;;;3.40;;
54177;SDS011;40085;53.004;6.770;2023-06-19T02:10:02;4.00;;;2.97;;
54177;SDS011;40085;53.004;6.770;2023-06-19T02:12:27;3.50;;;3.03;;
54177;SDS011;40085;53.004;6.770;2023-06-19T02:14:53;6.63;;;3.20;;
54177;SDS011;40085;53.004;6.770;2023-06-19T02:17:18;5.43;;;3.30;;
54177;SDS011;40085;53.004;6.770;2023-06-19T02:19:44;4.93;;;3.40;;
54177;SDS011;40085;53.004;6.770;2023-06-19T02:22:10;7.22;;;3.65;;
54177;SDS011;40085;53.004;6.770;2023-06-19T02:24:36;5.13;;;3.53;;
54177;SDS011;40085;53.004;6.770;2023-06-19T02:27:02;3.97;;;3.13;;
54177;SDS011;40085;53.004;6.770;2023-06-19T02:29:27;7.18;;;3.25;;
54177;SDS011;40085;53.004;6.770;2023-06-19T02:31:54;4.10;;;3.13;;
54177;SDS011;40085;53.004;6.770;2023-06-19T02:34:20;6.97;;;3.85;;
54177;SDS011;40085;53.004;6.770;2023-06-19T02:36:49;4.25;;;2.63;;
54177;SDS011;40085;53.004;6.770;2023-06-19T02:39:15;4.55;;;3.35;;
54177;SDS011;40085;53.004;6.770;2023-06-19T02:41:40;4.47;;;3.28;;
54177;SDS011;40085;53.004;6.770;2023-06-19T02:44:10;5.93;;;3.35;;
54177;SDS011;40085;53.004;6.770;2023-06-19T02:46:37;4.35;;;3.15;;
54177;SDS011;40085;53.004;6.770;2023-06-19T02:49:02;4.22;;;2.97;;
54177;SDS011;40085;53.004;6.770;2023-06-19T02:51:28;4.47;;;3.50;;
54177;SDS011;40085;53.004;6.770;2023-06-19T02:53:54;5.50;;;3.22;;
54177;SDS011;40085;53.004;6.770;2023-06-19T02:56:19;4.93;;;3.13;;
54177;SDS011;40085;53.004;6.770;2023-06-19T02:58:45;4.47;;;2.97;;
54177;SDS011;40085;53.004;6.770;2023-06-19T03:01:11;4.80;;;3.30;;
54177;SDS011;40085;53.004;6.770;2023-06-19T03:03:36;3.53;;;2.85;;
54177;SDS011;40085;53.004;6.770;2023-06-19T03:06:04;5.07;;;3.03;;
54177;SDS011;40085;53.004;6.770;2023-06-19T03:08:31;4.32;;;3.15;;
54177;SDS011;40085;53.004;6.770;2023-06-19T03:10:58;6.20;;;4.13;;
54177;SDS011;40085;53.004;6.770;2023-06-19T03:13:24;7.43;;;3.75;;
54177;SDS011;40085;53.004;6.770;2023-06-19T03:15:50;4.65;;;3.55;;
54177;SDS011;40085;53.004;6.770;2023-06-19T03:18:15;3.72;;;2.78;;
54177;SDS011;40085;53.004;6.770;2023-06-19T03:20:41;5.25;;;3.17;;
54177;SDS011;40085;53.004;6.770;2023-06-19T03:23:07;4.20;;;2.65;;
54177;SDS011;40085;53.004;6.770;2023-06-19T03:25:32;4.97;;;3.22;;
54177;SDS011;40085;53.004;6.770;2023-06-19T03:28:00;7.05;;;3.72;;
54177;SDS011;40085;53.004;6.770;2023-06-19T03:30:27;5.25;;;3.17;;
54177;SDS011;40085;53.004;6.770;2023-06-19T03:32:53;4.72;;;2.67;;
54177;SDS011;40085;53.004;6.770;2023-06-19T03:35:18;5.07;;;3.38;;
54177;SDS011;40085;53.004;6.770;2023-06-19T03:37:44;5.18;;;3.13;;
54177;SDS011;40085;53.004;6.770;2023-06-19T03:40:09;4.63;;;3.25;;
54177;SDS011;40085;53.004;6.770;2023-06-19T03:42:38;5.68;;;3.17;;
54177;SDS011;40085;53.004;6.770;2023-06-19T03:45:05;5.90;;;3.47;;
54177;SDS011;40085;53.004;6.770;2023-06-19T03:47:31;5.05;;;2.85;;
54177;SDS011;40085;53.004;6.770;2023-06-19T03:49:57;5.22;;;3.17;;
54177;SDS011;40085;53.004;6.770;2023-06-19T03:52:22;5.35;;;3.17;;
54177;SDS011;40085;53.004;6.770;2023-06-19T03:54:48;5.00;;;3.38;;
54177;SDS011;40085;53.004;6.770;2023-06-19T03:57:14;6.15;;;2.83;;
54177;SDS011;40085;53.004;6.770;2023-06-19T03:59:40;4.50;;;2.53;;
54177;SDS011;40085;53.004;6.770;2023-06-19T04:02:05;5.43;;;3.30;;
54177;SDS011;40085;53.004;6.770;2023-06-19T04:04:31;5.50;;;3.03;;
54177;SDS011;40085;53.004;6.770;2023-06-19T04:06:57;3.83;;;2.63;;
54177;SDS011;40085;53.004;6.770;2023-06-19T04:09:24;3.83;;;2.88;;
54177;SDS011;40085;53.004;6.770;2023-06-19T04:11:50;5.20;;;2.97;;
54177;SDS011;40085;53.004;6.770;2023-06-19T04:14:15;6.60;;;2.80;;
54177;SDS011;40085;53.004;6.770;2023-06-19T04:16:41;5.15;;;2.78;;
54177;SDS011;40085;53.004;6.770;2023-06-19T04:19:06;3.00;;;2.10;;
54177;SDS011;40085;53.004;6.770;2023-06-19T04:21:32;4.72;;;2.17;;
54177;SDS011;40085;53.004;6.770;2023-06-19T04:23:58;4.13;;;2.00;;
54177;SDS011;40085;53.004;6.770;2023-06-19T04:26:23;3.03;;;2.30;;
54177;SDS011;40085;53.004;6.770;2023-06-19T04:28:49;2.80;;;2.10;;
54177;SDS011;40085;53.004;6.770;2023-06-19T04:31:15;2.42;;;1.50;;
54177;SDS011;40085;53.004;6.770;2023-06-19T04:33:43;2.92;;;1.70;;
54177;SDS011;40085;53.004;6.770;2023-06-19T04:36:11;2.38;;;1.60;;
54177;SDS011;40085;53.004;6.770;2023-06-19T04:38:37;5.70;;;1.85;;
54177;SDS011;40085;53.004;6.770;2023-06-19T04:41:02;5.07;;;1.80;;
54177;SDS011;40085;53.004;6.770;2023-06-19T04:43:28;3.00;;;2.05;;
54177;SDS011;40085;53.004;6.770;2023-06-19T04:45:54;2.97;;;1.90;;
54177;SDS011;40085;53.004;6.770;2023-06-19T04:48:20;4.65;;;1.98;;
54177;SDS011;40085;53.004;6.770;2023-06-19T04:50:49;3.57;;;2.13;;
54177;SDS011;40085;53.004;6.770;2023-06-19T04:53:16;2.38;;;1.75;;
54177;SDS011;40085;53.004;6.770;2023-06-19T04:55:42;3.50;;;2.00;;
54177;SDS011;40085;53.004;6.770;2023-06-19T04:58:08;9.02;;;1.90;;
54177;SDS011;40085;53.004;6.770;2023-06-19T05:00:34;3.17;;;1.85;;
54177;SDS011;40085;53.004;6.770;2023-06-19T05:03:00;2.08;;;1.52;;
54177;SDS011;40085;53.004;6.770;2023-06-19T05:05:26;2.90;;;1.75;;
54177;SDS011;40085;53.004;6.770;2023-06-19T05:07:53;2.53;;;1.67;;
54177;SDS011;40085;53.004;6.770;2023-06-19T05:10:18;2.75;;;1.67;;
54177;SDS011;40085;53.004;6.770;2023-06-19T05:12:44;2.35;;;1.60;;
54177;SDS011;40085;53.004;6.770;2023-06-19T05:15:10;3.38;;;1.73;;
54177;SDS011;40085;53.004;6.770;2023-06-19T05:17:36;5.50;;;2.00;;
54177;SDS011;40085;53.004;6.770;2023-06-19T05:20:03;2.83;;;1.63;;
54177;SDS011;40085;53.004;6.770;2023-06-19T05:22:32;3.30;;;1.63;;
54177;SDS011;40085;53.004;6.770;2023-06-19T05:24:59;3.08;;;1.73;;
54177;SDS011;40085;53.004;6.770;2023-06-19T05:27:25;2.70;;;1.75;;
54177;SDS011;40085;53.004;6.770;2023-06-19T05:29:50;4.10;;;1.58;;
54177;SDS011;40085;53.004;6.770;2023-06-19T05:32:16;2.38;;;1.35;;
54177;SDS011;40085;53.004;6.770;2023-06-19T05:34:41;1.60;;;1.42;;
54177;SDS011;40085;53.004;6.770;2023-06-19T05:37:07;2.40;;;1.20;;
54177;SDS011;40085;53.004;6.770;2023-06-19T05:39:32;2.47;;;1.40;;
54177;SDS011;40085;53.004;6.770;2023-06-19T05:41:58;2.47;;;1.73;;
54177;SDS011;40085;53.004;6.770;2023-06-19T05:44:24;2.58;;;1.52;;
54177;SDS011;40085;53.004;6.770;2023-06-19T05:46:49;2.50;;;1.50;;
54177;SDS011;40085;53.004;6.770;2023-06-19T05:49:15;2.10;;;1.50;;
54177;SDS011;40085;53.004;6.770;2023-06-19T05:51:41;2.88;;;1.50;;
54177;SDS011;40085;53.004;6.770;2023-06-19T05:54:06;2.45;;;1.55;;
54177;SDS011;40085;53.004;6.770;2023-06-19T05:56:32;3.95;;;1.77;;
54177;SDS011;40085;53.004;6.770;2023-06-19T05:58:58;2.47;;;1.50;;
54177;SDS011;40085;53.004;6.770;2023-06-19T06:01:28;2.22;;;1.45;;
54177;SDS011;40085;53.004;6.770;2023-06-19T06:03:54;5.60;;;1.48;;
54177;SDS011;40085;53.004;6.770;2023-06-19T06:06:20;2.55;;;1.75;;
54177;SDS011;40085;53.004;6.770;2023-06-19T06:08:47;2.63;;;1.63;;
54177;SDS011;40085;53.004;6.770;2023-06-19T06:11:12;2.22;;;1.58;;
54177;SDS011;40085;53.004;6.770;2023-06-19T06:13:38;2.45;;;1.55;;
54177;SDS011;40085;53.004;6.770;2023-06-19T06:16:04;3.65;;;1.85;;
54177;SDS011;40085;53.004;6.770;2023-06-19T06:18:29;4.47;;;1.75;;
54177;SDS011;40085;53.004;6.770;2023-06-19T06:20:55;5.10;;;1.73;;
54177;SDS011;40085;53.004;6.770;2023-06-19T06:23:20;4.68;;;2.05;;
54177;SDS011;40085;53.004;6.770;2023-06-19T06:25:46;3.13;;;1.55;;
54177;SDS011;40085;53.004;6.770;2023-06-19T06:28:12;2.30;;;1.52;;
54177;SDS011;40085;53.004;6.770;2023-06-19T06:30:38;3.08;;;1.67;;
54177;SDS011;40085;53.004;6.770;2023-06-19T06:33:04;1.58;;;1.23;;
54177;SDS011;40085;53.004;6.770;2023-06-19T06:35:29;2.90;;;1.65;;
54177;SDS011;40085;53.004;6.770;2023-06-19T06:37:55;2.40;;;1.35;;
54177;SDS011;40085;53.004;6.770;2023-06-19T06:40:21;2.67;;;1.52;;
54177;SDS011;40085;53.004;6.770;2023-06-19T06:42:46;1.95;;;1.42;;
54177;SDS011;40085;53.004;6.770;2023-06-19T06:45:12;2.25;;;1.52;;
54177;SDS011;40085;53.004;6.770;2023-06-19T06:47:38;2.03;;;1.35;;
54177;SDS011;40085;53.004;6.770;2023-06-19T06:50:05;3.58;;;1.63;;
54177;SDS011;40085;53.004;6.770;2023-06-19T06:52:31;2.30;;;1.60;;
54177;SDS011;40085;53.004;6.770;2023-06-19T06:54:57;2.95;;;1.48;;
54177;SDS011;40085;53.004;6.770;2023-06-19T06:57:23;3.75;;;1.70;;
54177;SDS011;40085;53.004;6.770;2023-06-19T06:59:50;3.13;;;1.90;;
54177;SDS011;40085;53.004;6.770;2023-06-19T07:02:15;4.13;;;2.08;;
54177;SDS011;40085;53.004;6.770;2023-06-19T07:04:41;3.25;;;1.83;;
54177;SDS011;40085;53.004;6.770;2023-06-19T07:07:07;2.70;;;1.90;;
54177;SDS011;40085;53.004;6.770;2023-06-19T07:09:33;3.40;;;2.10;;
54177;SDS011;40085;53.004;6.770;2023-06-19T07:11:59;3.55;;;2.55;;
54177;SDS011;40085;53.004;6.770;2023-06-19T07:14:26;4.85;;;2.72;;
54177;SDS011;40085;53.004;6.770;2023-06-19T07:16:52;7.20;;;3.42;;
54177;SDS011;40085;53.004;6.770;2023-06-19T07:19:18;4.72;;;2.88;;
54177;SDS011;40085;53.004;6.770;2023-06-19T07:21:43;6.80;;;3.72;;
54177;SDS011;40085;53.004;6.770;2023-06-19T07:24:09;7.38;;;3.38;;
54177;SDS011;40085;53.004;6.770;2023-06-19T07:26:35;6.47;;;3.70;;
54177;SDS011;40085;53.004;6.770;2023-06-19T07:29:00;5.20;;;3.95;;
54177;SDS011;40085;53.004;6.770;2023-06-19T07:31:26;4.63;;;3.67;;
54177;SDS011;40085;53.004;6.770;2023-06-19T07:33:52;6.43;;;4.03;;
54177;SDS011;40085;53.004;6.770;2023-06-19T07:36:17;8.18;;;4.00;;
54177;SDS011;40085;53.004;6.770;2023-06-19T07:38:43;5.43;;;3.55;;
54177;SDS011;40085;53.004;6.770;2023-06-19T07:41:09;5.35;;;3.85;;
54177;SDS011;40085;53.004;6.770;2023-06-19T07:43:36;4.47;;;3.45;;
54177;SDS011;40085;53.004;6.770;2023-06-19T07:46:02;3.70;;;2.60;;
54177;SDS011;40085;53.004;6.770;2023-06-19T07:48:28;5.30;;;3.30;;
54177;SDS011;40085;53.004;6.770;2023-06-19T07:50:54;5.13;;;2.92;;
54177;SDS011;40085;53.004;6.770;2023-06-19T07:53:19;4.45;;;2.67;;
54177;SDS011;40085;53.004;6.770;2023-06-19T07:55:45;6.85;;;2.95;;
54177;SDS011;40085;53.004;6.770;2023-06-19T07:58:11;4.15;;;2.55;;
54177;SDS011;40085;53.004;6.770;2023-06-19T08:00:37;2.97;;;2.22;;
54177;SDS011;40085;53.004;6.770;2023-06-19T08:03:03;4.68;;;2.42;;
54177;SDS011;40085;53.004;6.770;2023-06-19T08:05:29;3.63;;;2.40;;
54177;SDS011;40085;53.004;6.770;2023-06-19T08:07:56;3.83;;;2.30;;
54177;SDS011;40085;53.004;6.770;2023-06-19T08:10:23;2.50;;;1.85;;
54177;SDS011;40085;53.004;6.770;2023-06-19T08:12:48;3.03;;;1.80;;
54177;SDS011;40085;53.004;6.770;2023-06-19T08:15:14;2.65;;;1.95;;
54177;SDS011;40085;53.004;6.770;2023-06-19T08:17:40;3.97;;;1.95;;
54177;SDS011;40085;53.004;6.770;2023-06-19T08:20:06;2.63;;;1.88;;
54177;SDS011;40085;53.004;6.770;2023-06-19T08:22:32;2.70;;;1.75;;
54177;SDS011;40085;53.004;6.770;2023-06-19T08:24:58;2.22;;;1.60;;
54177;SDS011;40085;53.004;6.770;2023-06-19T08:27:23;4.30;;;1.98;;
54177;SDS011;40085;53.004;6.770;2023-06-19T08:29:49;3.85;;;2.15;;
54177;SDS011;40085;53.004;6.770;2023-06-19T08:32:14;3.40;;;2.00;;
54177;SDS011;40085;53.004;6.770;2023-06-19T08:34:41;4.00;;;1.95;;
54177;SDS011;40085;53.004;6.770;2023-06-19T08:37:07;3.88;;;1.60;;
54177;SDS011;40085;53.004;6.770;2023-06-19T08:39:36;2.58;;;1.60;;
54177;SDS011;40085;53.004;6.770;2023-06-19T08:42:05;2.60;;;1.80;;
54177;SDS011;40085;53.004;6.770;2023-06-19T08:44:32;2.05;;;1.33;;
54177;SDS011;40085;53.004;6.770;2023-06-19T08:46:59;3.50;;;2.10;;
54177;SDS011;40085;53.004;6.770;2023-06-19T08:49:25;2.22;;;1.80;;
54177;SDS011;40085;53.004;6.770;2023-06-19T08:51:50;2.72;;;1.70;;
54177;SDS011;40085;53.004;6.770;2023-06-19T08:54:17;2.90;;;1.90;;
54177;SDS011;40085;53.004;6.770;2023-06-19T08:56:43;3.20;;;1.75;;
54177;SDS011;40085;53.004;6.770;2023-06-19T08:59:16;2.85;;;1.95;;
54177;SDS011;40085;53.004;6.770;2023-06-19T09:01:52;4.40;;;2.22;;
54177;SDS011;40085;53.004;6.770;2023-06-19T09:04:20;3.67;;;1.90;;
54177;SDS011;40085;53.004;6.770;2023-06-19T09:06:51;3.35;;;1.92;;
54177;SDS011;40085;53.004;6.770;2023-06-19T09:09:19;4.18;;;2.10;;
54177;SDS011;40085;53.004;6.770;2023-06-19T09:12:02;2.00;;;1.58;;
54177;SDS011;40085;53.004;6.770;2023-06-19T09:14:36;2.40;;;1.90;;
54177;SDS011;40085;53.004;6.770;2023-06-19T09:17:07;5.82;;;2.25;;
54177;SDS011;40085;53.004;6.770;2023-06-19T09:19:36;3.42;;;1.92;;
54177;SDS011;40085;53.004;6.770;2023-06-19T09:24:38;2.67;;;1.93;;
54177;SDS011;40085;53.004;6.770;2023-06-19T09:27:12;2.75;;;1.85;;
54177;SDS011;40085;53.004;6.770;2023-06-19T09:29:43;3.72;;;2.25;;
54177;SDS011;40085;53.004;6.770;2023-06-19T09:32:16;3.28;;;2.05;;
54177;SDS011;40085;53.004;6.770;2023-06-19T09:34:47;4.55;;;1.92;;
54177;SDS011;40085;53.004;6.770;2023-06-19T09:37:14;2.88;;;1.90;;
54177;SDS011;40085;53.004;6.770;2023-06-19T09:39:41;2.83;;;2.10;;
54177;SDS011;40085;53.004;6.770;2023-06-19T09:42:07;2.45;;;1.83;;
54177;SDS011;40085;53.004;6.770;2023-06-19T09:44:41;3.15;;;2.40;;
54177;SDS011;40085;53.004;6.770;2023-06-19T09:47:13;3.53;;;2.60;;
54177;SDS011;40085;53.004;6.770;2023-06-19T09:49:44;3.70;;;2.20;;
54177;SDS011;40085;53.004;6.770;2023-06-19T09:52:15;3.75;;;2.22;;
54177;SDS011;40085;53.004;6.770;2023-06-19T09:54:41;6.20;;;2.70;;
54177;SDS011;40085;53.004;6.770;2023-06-19T09:57:08;5.97;;;2.50;;
54177;SDS011;40085;53.004;6.770;2023-06-19T09:59:35;4.10;;;2.70;;
54177;SDS011;40085;53.004;6.770;2023-06-19T10:02:03;4.18;;;2.53;;
54177;SDS011;40085;53.004;6.770;2023-06-19T10:04:41;5.13;;;2.85;;
54177;SDS011;40085;53.004;6.770;2023-06-19T10:07:20;5.68;;;2.97;;
54177;SDS011;40085;53.004;6.770;2023-06-19T10:10:01;5.60;;;3.35;;
54177;SDS011;40085;53.004;6.770;2023-06-19T10:15:21;5.40;;;3.33;;
54177;SDS011;40085;53.004;6.770;2023-06-19T10:17:52;5.50;;;3.22;;
54177;SDS011;40085;53.004;6.770;2023-06-19T10:22:58;4.78;;;2.60;;
54177;SDS011;40085;53.004;6.770;2023-06-19T10:25:34;4.63;;;2.80;;
54177;SDS011;40085;53.004;6.770;2023-06-19T10:28:03;4.90;;;2.72;;
54177;SDS011;40085;53.004;6.770;2023-06-19T10:30:33;5.13;;;2.90;;
54177;SDS011;40085;53.004;6.770;2023-06-19T10:33:01;3.80;;;2.72;;
54177;SDS011;40085;53.004;6.770;2023-06-19T10:35:37;4.20;;;2.63;;
54177;SDS011;40085;53.004;6.770;2023-06-19T10:38:07;5.07;;;3.17;;
54177;SDS011;40085;53.004;6.770;2023-06-19T10:40:35;5.07;;;3.08;;
54177;SDS011;40085;53.004;6.770;2023-06-19T10:43:01;4.57;;;2.92;;
54177;SDS011;40085;53.004;6.770;2023-06-19T10:45:28;4.95;;;2.33;;
54177;SDS011;40085;53.004;6.770;2023-06-19T10:47:55;5.15;;;3.15;;
54177;SDS011;40085;53.004;6.770;2023-06-19T10:50:20;6.40;;;3.30;;
54177;SDS011;40085;53.004;6.770;2023-06-19T10:52:48;5.63;;;2.97;;
54177;SDS011;40085;53.004;6.770;2023-06-19T10:55:17;4.30;;;3.05;;
54177;SDS011;40085;53.004;6.770;2023-06-19T10:57:46;3.83;;;3.00;;
54177;SDS011;40085;53.004;6.770;2023-06-19T11:00:25;4.60;;;3.03;;
54177;SDS011;40085;53.004;6.770;2023-06-19T11:02:55;5.68;;;3.08;;
54177;SDS011;40085;53.004;6.770;2023-06-19T11:05:25;3.70;;;2.70;;
54177;SDS011;40085;53.004;6.770;2023-06-19T11:07:56;5.07;;;3.03;;
54177;SDS011;40085;53.004;6.770;2023-06-19T11:10:24;4.07;;;2.97;;
54177;SDS011;40085;53.004;6.770;2023-06-19T11:12:54;7.07;;;2.95;;
54177;SDS011;40085;53.004;6.770;2023-06-19T11:17:53;3.30;;;2.40;;
54177;SDS011;40085;53.004;6.770;2023-06-19T11:20:19;5.57;;;2.53;;
54177;SDS011;40085;53.004;6.770;2023-06-19T11:22:44;2.95;;;2.05;;
54177;SDS011;40085;53.004;6.770;2023-06-19T11:25:11;3.83;;;2.38;;
54177;SDS011;40085;53.004;6.770;2023-06-19T11:27:37;6.07;;;3.03;;
54177;SDS011;40085;53.004;6.770;2023-06-19T11:30:04;3.28;;;2.33;;
54177;SDS011;40085;53.004;6.770;2023-06-19T11:32:36;4.90;;;2.78;;
54177;SDS011;40085;53.004;6.770;2023-06-19T11:35:07;4.43;;;2.90;;
54177;SDS011;40085;53.004;6.770;2023-06-19T11:37:34;4.95;;;2.85;;
54177;SDS011;40085;53.004;6.770;2023-06-19T11:40:00;5.10;;;2.47;;
54177;SDS011;40085;53.004;6.770;2023-06-19T11:42:31;4.90;;;2.70;;
54177;SDS011;40085;53.004;6.770;2023-06-19T11:44:59;5.13;;;3.17;;
54177;SDS011;40085;53.004;6.770;2023-06-19T11:47:31;4.43;;;2.83;;
54177;SDS011;40085;53.004;6.770;2023-06-19T11:49:57;3.78;;;2.53;;
54177;SDS011;40085;53.004;6.770;2023-06-19T11:52:24;8.43;;;2.95;;
54177;SDS011;40085;53.004;6.770;2023-06-19T11:54:50;5.75;;;3.45;;
54177;SDS011;40085;53.004;6.770;2023-06-19T11:57:15;5.55;;;3.50;;
54177;SDS011;40085;53.004;6.770;2023-06-19T11:59:41;4.10;;;2.85;;
54177;SDS011;40085;53.004;6.770;2023-06-19T12:02:08;4.60;;;2.70;;
54177;SDS011;40085;53.004;6.770;2023-06-19T12:04:34;4.78;;;3.00;;
54177;SDS011;40085;53.004;6.770;2023-06-19T12:07:00;5.53;;;2.80;;
54177;SDS011;40085;53.004;6.770;2023-06-19T12:09:26;4.68;;;3.10;;
54177;SDS011;40085;53.004;6.770;2023-06-19T12:11:52;5.20;;;3.13;;
54177;SDS011;40085;53.004;6.770;2023-06-19T12:14:18;4.55;;;2.40;;
54177;SDS011;40085;53.004;6.770;2023-06-19T12:16:45;4.18;;;2.55;;
54177;SDS011;40085;53.004;6.770;2023-06-19T12:19:12;4.10;;;3.13;;
54177;SDS011;40085;53.004;6.770;2023-06-19T12:21:38;3.55;;;2.47;;
54177;SDS011;40085;53.004;6.770;2023-06-19T12:24:04;4.90;;;2.75;;
54177;SDS011;40085;53.004;6.770;2023-06-19T12:26:30;4.65;;;2.80;;
54177;SDS011;40085;53.004;6.770;2023-06-19T12:29:02;5.00;;;2.80;;
54177;SDS011;40085;53.004;6.770;2023-06-19T12:31:28;5.90;;;3.28;;
54177;SDS011;40085;53.004;6.770;2023-06-19T12:33:54;4.53;;;2.88;;
54177;SDS011;40085;53.004;6.770;2023-06-19T12:36:20;5.63;;;2.97;;
54177;SDS011;40085;53.004;6.770;2023-06-19T12:38:46;5.47;;;2.95;;
54177;SDS011;40085;53.004;6.770;2023-06-19T12:41:12;5.88;;;2.70;;
54177;SDS011;40085;53.004;6.770;2023-06-19T12:43:38;5.68;;;3.17;;
54177;SDS011;40085;53.004;6.770;2023-06-19T12:46:04;7.55;;;3.20;;
54177;SDS011;40085;53.004;6.770;2023-06-19T12:48:29;5.05;;;3.00;;
54177;SDS011;40085;53.004;6.770;2023-06-19T12:50:55;5.10;;;2.80;;
54177;SDS011;40085;53.004;6.770;2023-06-19T12:53:21;4.70;;;3.08;;
54177;SDS011;40085;53.004;6.770;2023-06-19T12:58:20;5.32;;;3.22;;
54177;SDS011;40085;53.004;6.770;2023-06-19T13:00:46;4.55;;;2.90;;
54177;SDS011;40085;53.004;6.770;2023-06-19T13:03:12;5.45;;;3.20;;
54177;SDS011;40085;53.004;6.770;2023-06-19T13:05:37;5.38;;;3.05;;
54177;SDS011;40085;53.004;6.770;2023-06-19T13:08:03;3.55;;;2.45;;
54177;SDS011;40085;53.004;6.770;2023-06-19T13:10:28;4.47;;;2.55;;
54177;SDS011;40085;53.004;6.770;2023-06-19T13:12:54;4.82;;;2.67;;
54177;SDS011;40085;53.004;6.770;2023-06-19T13:15:22;4.95;;;3.08;;
54177;SDS011;40085;53.004;6.770;2023-06-19T13:17:47;5.95;;;2.95;;
54177;SDS011;40085;53.004;6.770;2023-06-19T13:20:13;4.28;;;2.60;;
54177;SDS011;40085;53.004;6.770;2023-06-19T13:22:40;5.07;;;3.17;;
54177;SDS011;40085;53.004;6.770;2023-06-19T13:25:06;3.47;;;2.50;;
54177;SDS011;40085;53.004;6.770;2023-06-19T13:27:32;4.28;;;2.47;;
54177;SDS011;40085;53.004;6.770;2023-06-19T13:29:59;4.85;;;3.20;;
54177;SDS011;40085;53.004;6.770;2023-06-19T13:32:25;3.45;;;2.60;;
54177;SDS011;40085;53.004;6.770;2023-06-19T13:34:51;4.90;;;2.60;;
54177;SDS011;40085;53.004;6.770;2023-06-19T13:37:17;3.58;;;2.50;;
54177;SDS011;40085;53.004;6.770;2023-06-19T13:39:43;8.43;;;2.67;;
54177;SDS011;40085;53.004;6.770;2023-06-19T13:42:09;6.90;;;3.20;;
54177;SDS011;40085;53.004;6.770;2023-06-19T13:44:35;3.58;;;2.28;;
54177;SDS011;40085;53.004;6.770;2023-06-19T13:47:01;3.60;;;2.38;;
54177;SDS011;40085;53.004;6.770;2023-06-19T13:49:27;6.70;;;2.50;;
54177;SDS011;40085;53.004;6.770;2023-06-19T13:51:53;4.13;;;3.03;;
54177;SDS011;40085;53.004;6.770;2023-06-19T13:54:19;3.65;;;2.08;;
54177;SDS011;40085;53.004;6.770;2023-06-19T13:56:46;4.18;;;2.63;;
54177;SDS011;40085;53.004;6.770;2023-06-19T13:59:12;6.10;;;2.85;;
54177;SDS011;40085;53.004;6.770;2023-06-19T14:01:37;4.53;;;2.85;;
54177;SDS011;40085;53.004;6.770;2023-06-19T14:04:04;3.72;;;2.45;;
54177;SDS011;40085;53.004;6.770;2023-06-19T14:06:30;6.95;;;2.50;;
54177;SDS011;40085;53.004;6.770;2023-06-19T14:08:55;3.67;;;2.50;;
54177;SDS011;40085;53.004;6.770;2023-06-19T14:11:21;4.07;;;2.65;;
54177;SDS011;40085;53.004;6.770;2023-06-19T14:13:47;4.35;;;2.30;;
54177;SDS011;40085;53.004;6.770;2023-06-19T14:16:12;4.80;;;1.98;;
54177;SDS011;40085;53.004;6.770;2023-06-19T14:18:38;3.50;;;2.22;;
54177;SDS011;40085;53.004;6.770;2023-06-19T14:21:04;3.65;;;2.13;;
54177;SDS011;40085;53.004;6.770;2023-06-19T14:23:29;4.65;;;2.42;;
54177;SDS011;40085;53.004;6.770;2023-06-19T14:25:56;3.90;;;2.10;;
54177;SDS011;40085;53.004;6.770;2023-06-19T14:28:21;4.75;;;2.47;;
54177;SDS011;40085;53.004;6.770;2023-06-19T14:30:47;4.97;;;2.50;;
54177;SDS011;40085;53.004;6.770;2023-06-19T14:33:12;4.25;;;2.35;;
54177;SDS011;40085;53.004;6.770;2023-06-19T14:35:41;2.50;;;1.65;;
54177;SDS011;40085;53.004;6.770;2023-06-19T14:38:09;4.43;;;2.15;;
54177;SDS011;40085;53.004;6.770;2023-06-19T14:40:35;3.25;;;1.83;;
54177;SDS011;40085;53.004;6.770;2023-06-19T14:43:01;2.72;;;1.77;;
54177;SDS011;40085;53.004;6.770;2023-06-19T14:45:26;3.90;;;2.47;;
54177;SDS011;40085;53.004;6.770;2023-06-19T14:47:52;3.45;;;2.20;;
54177;SDS011;40085;53.004;6.770;2023-06-19T14:50:17;3.72;;;2.13;;
54177;SDS011;40085;53.004;6.770;2023-06-19T14:52:43;6.43;;;2.63;;
54177;SDS011;40085;53.004;6.770;2023-06-19T14:55:09;3.13;;;2.13;;
54177;SDS011;40085;53.004;6.770;2023-06-19T14:57:35;6.10;;;2.22;;
54177;SDS011;40085;53.004;6.770;2023-06-19T15:00:01;3.75;;;2.17;;